Flight Track Log - Related Links

Times and Time Zones

All times are in EDT time to prevent confusion due to time zone crossing. See the SKP76 flight status page for this flight to view local times or setup timezone preferences in your user account.

Time Position Orientation Groundspeed Altitude Reporting Facility
EDT Latitude Longitude Course Direction KTS MPH feet Rate Location/Type
Thu 11:50:00 PM -16.5688 145.5784 332° Northwest  Level FlightAware Approximate
Thu 11:51:00 PM -16.5160 145.5490 332° Northwest  Level FlightAware Approximate
Thu 11:52:00 PM -16.4632 145.5196 332° Northwest  Level FlightAware Approximate
Thu 11:52:46 PM -16.4922 145.5392 144° Southeast 22,000  Level Aus ATC (Calculated)
Thu 11:53:00 PM -16.4103 145.4903 332° Northwest  Level FlightAware Approximate
Thu 11:54:00 PM -16.4279 145.5029 332° Northwest  Level FlightAware Approximate
Thu 11:55:00 PM -16.3757 145.4734 332° Northwest  Level FlightAware Approximate
Thu 11:56:00 PM -16.3235 145.4439 332° Northwest  Level FlightAware Approximate
Thu 11:56:27 PM -16.7429 145.7302 332° Northwest 154 177 4,000  Level Aus ATC (RADAR)
Thu 11:59:19 PM -16.5487 145.6426 337° Northwest 181 208 8,000 977 Climbing Aus ATC (RADAR)
Fri 12:03:49 AM -16.3246 145.5061 330° Northwest 203 234 11,200 602 Climbing Aus ATC (RADAR)
Fri 12:08:57 AM -16.1023 145.3723 330° Northwest 200 230 13,800 346 Climbing Aus ATC (RADAR)
Fri 12:14:14 AM -15.9882 145.3034 330° Northwest 206 237 14,800 388 Climbing Aus ATC (RADAR)
Fri 12:22:37 AM -15.5013 145.0112 330° Northwest 187 215 19,100 437 Climbing Aus ATC (RADAR)
Fri 12:23:00 AM -15.5294 145.0280 330° Northwest  Level FlightAware Approximate
Fri 12:25:55 AM -15.3861 144.9426 330° Northwest 187 215 19,900  Level Aus ATC (RADAR)
Fri 12:30:19 AM -15.0069 144.7170 330° Northwest 222 255 19,900  Level Aus ATC (RADAR)
Fri 12:32:55 AM -14.7963 144.5918 330° Northwest 215 247 19,900  Level Aus ATC (RADAR)
Fri 12:38:48 AM -14.6303 144.4945 330° Northwest 216 249 19,900  Level Aus ATC (RADAR)
Fri 12:44:05 AM -14.3213 144.3250 332° Northwest 220 253 19,900  Level Aus ATC (RADAR)
Fri 12:44:44 AM -14.2349 144.2788 333° Northwest 221 254 19,900  Level Aus ATC (RADAR)
Fri 12:46:00 AM -14.1676 144.2413 332° Northwest  Level FlightAware Approximate
Fri 12:50:55 AM -13.7612 144.0155 152° Southeast 20,000  Level Aus ATC (Calculated)
Fri 12:53:00 AM -13.7952 144.0344 332° Northwest  Level FlightAware Approximate
Fri 12:54:00 AM -13.7420 144.0049 332° Northwest  Level FlightAware Approximate
Fri 12:55:00 AM -13.6887 143.9754 332° Northwest  Level FlightAware Approximate
Fri 12:56:00 AM -13.4906 143.8658 332° Northwest  Level FlightAware Approximate
Fri 12:57:00 AM -13.4374 143.8364 332° Northwest  Level FlightAware Approximate
Fri 12:58:00 AM -13.3842 143.8069 332° Northwest  Level FlightAware Approximate
Fri 12:59:00 AM -13.3309 143.7776 332° Northwest  Level FlightAware Approximate
Fri 01:00:00 AM -13.2777 143.7482 332° Northwest  Level FlightAware Approximate
Fri 01:00:12 AM -13.0441 143.6194 152° Southeast 20,000  Level Aus ATC (Calculated)
Fri 01:01:00 AM -13.2244 143.7188 332° Northwest  Level FlightAware Approximate
Fri 01:02:00 AM -13.1712 143.6894 332° Northwest  Level FlightAware Approximate
Fri 01:03:00 AM -13.1179 143.6601 332° Northwest  Level FlightAware Approximate
Fri 01:04:00 AM -13.0647 143.6308 332° Northwest  Level FlightAware Approximate
Fri 01:05:00 AM -12.7884 143.4788 332° Northwest  Level FlightAware Approximate
Fri 01:05:11 AM -12.7174 143.4370 147° Southeast  Level Aus ATC (Calculated)
Fri 01:06:00 AM -12.7354 143.4491 331° Northwest  Level Estimated
Fri 01:07:00 AM -12.6823 143.4194 331° Northwest  Level FlightAware Approximate
Fri 01:08:00 AM -12.5678 143.3536 331° Northwest  Level FlightAware Approximate
Fri 01:08:56 AM -12.5019 143.3170 152° Southeast  Level Aus ATC (Calculated)
Fri 01:09:00 AM -12.5147 143.3241 331° Northwest  Level FlightAware Approximate
Fri 01:10:00 AM -12.4616 143.2945 331° Northwest  Level FlightAware Approximate
Fri 01:11:00 AM -12.3922 143.2559 331° Northwest  Level FlightAware Approximate
Fri 01:12:00 AM -12.3390 143.2264 331° Northwest  Level FlightAware Approximate
Fri 01:13:00 AM -12.2859 143.1969 332° Northwest  Level FlightAware Approximate
Fri 01:14:00 AM -12.2328 143.1674 332° Northwest  Level FlightAware Approximate
Fri 01:15:00 AM -12.1797 143.1379 332° Northwest  Level FlightAware Approximate
Fri 01:16:00 AM -12.1266 143.1084 332° Northwest  Level FlightAware Approximate
Fri 01:17:00 AM -12.0734 143.0790 332° Northwest  Level FlightAware Approximate
Fri 01:18:00 AM -12.0203 143.0495 332° Northwest  Level FlightAware Approximate
Fri 01:19:00 AM -11.9672 143.0201 332° Northwest  Level FlightAware Approximate
Fri 01:20:00 AM -11.9140 142.9906 332° Northwest  Level FlightAware Approximate
Fri 01:21:00 AM -11.8609 142.9612 332° Northwest  Level FlightAware Approximate
Fri 01:22:00 AM -11.8077 142.9318 332° Northwest  Level FlightAware Approximate
Fri 01:23:00 AM -11.7546 142.9024 332° Northwest  Level FlightAware Approximate
Fri 01:23:30 AM -11.6298 142.8335 152° Southeast  Level Aus ATC (Calculated)
Fri 01:24:00 AM -11.7015 142.8731 332° Northwest  Level FlightAware Approximate
Fri 01:25:00 AM -11.5500 142.7894 332° Northwest  Level FlightAware Approximate
Fri 01:25:17 AM -11.5449 142.7866 332° Northwest  Level Aus ATC (Calculated)
Fri 01:26:00 AM -11.4969 142.7601 332° Northwest  Level FlightAware Approximate
Fri 01:27:00 AM -11.4437 142.7308 332° Northwest  Level FlightAware Approximate
Fri 01:28:00 AM -11.3905 142.7014 332° Northwest  Level FlightAware Approximate
Fri 01:29:00 AM -11.3374 142.6721 332° Northwest  Level FlightAware Approximate
Fri 01:30:00 AM -11.2842 142.6428 332° Northwest  Level FlightAware Approximate
Fri 01:31:00 AM -11.2310 142.6136 332° Northwest  Level FlightAware Approximate
Fri 01:32:00 AM -11.1778 142.5843 332° Northwest  Level FlightAware Approximate
Fri 01:33:00 AM -11.1247 142.5550 332° Northwest  Level FlightAware Approximate
Fri 01:34:00 AM -11.0715 142.5258 332° Northwest  Level FlightAware Approximate
Fri 01:35:00 AM -11.0183 142.4965 332° Northwest  Level FlightAware Approximate
Fri 01:36:00 AM -10.9658 142.4660 331° Northwest  Level Estimated
Fri 01:37:00 AM -10.9444 142.4535 330° Northwest  Level Estimated
Fri 01:38:00 AM -10.9444 142.4535 North  Level Estimated
Fri 01:39:00 AM -10.9508 142.4595 331° Northwest  Level FlightAware Approximate
Fri 01:40:00 AM -10.9444 142.4535 318° Northwest  Level Estimated
Fri 01:41:00 AM -10.9444 142.4535 North  Level Estimated
Fri 01:42:00 AM -10.9444 142.4535 North  Level Estimated
Fri 01:43:00 AM -10.9444 142.4535 North  Level Estimated
Fri 01:44:00 AM -10.9444 142.4535 North  Level Estimated
Fri 01:45:00 AM -10.9444 142.4535 North  Level Estimated
Fri 01:46:00 AM -10.9444 142.4535 North  Level Estimated
Fri 01:47:00 AM -10.9444 142.4535 North  Level Estimated
Fri 01:48:00 AM -10.9444 142.4535 North  Level Estimated
Fri 01:49:00 AM -10.9444 142.4535 North  Level Estimated
Fri 01:50:00 AM -10.9444 142.4535 North  Level Estimated

Login

Don't have an account? Register now (free) for customized features, flight alerts, and more!